Time;durP1;ratioP1;P1;durP2;ratioP2;P2;SDS_P1;SDS_P2;PMS_P1;PMS_P2;Temp;Humidity;BMP_temperature;BMP_pressure;BME280_temperature;BME280_humidity;BME280_pressure;Samples;Min_cycle;Max_cycle;Signal;HPM_P1;HPM_P2
2021/09/15 00:01:11;;;;;;;15.17;13.63;;;;;;;18.03;79.71;100535.19;5051531;28;20208;-84
2021/09/15 00:03:38;;;;;;;15.03;13.63;;;;;;;18.01;79.86;100532.66;5051323;28;20233;-84
2021/09/15 00:06:05;;;;;;;14.93;13.43;;;;;;;18.00;80.17;100520.16;5051330;28;20767;-84
2021/09/15 00:08:32;;;;;;;14.40;13.00;;;;;;;17.98;80.44;100519.47;5051707;28;20226;-84
2021/09/15 00:10:59;;;;;;;13.73;12.53;;;;;;;17.94;80.14;100514.50;5049073;28;20202;-84
2021/09/15 00:13:25;;;;;;;13.63;12.33;;;;;;;17.90;80.10;100508.59;5052487;28;20226;-84
2021/09/15 00:15:54;;;;;;;15.17;13.70;;;;;;;17.87;80.27;100516.09;5052275;28;20202;-83
2021/09/15 00:18:20;;;;;;;13.40;12.30;;;;;;;17.84;80.30;100517.25;5052277;28;20207;-83
2021/09/15 00:20:47;;;;;;;13.27;12.17;;;;;;;17.80;80.27;100509.59;5050160;28;20197;-83
2021/09/15 00:23:13;;;;;;;13.77;12.37;;;;;;;17.76;80.38;100514.44;5051100;28;20244;-83
2021/09/15 00:25:40;;;;;;;15.30;11.93;;;;;;;17.72;80.41;100523.81;5052806;28;20288;-84
2021/09/15 00:28:06;;;;;;;12.63;11.50;;;;;;;17.69;80.39;100522.25;5045069;28;20200;-83
2021/09/15 00:30:33;;;;;;;15.00;11.07;;;;;;;17.66;80.62;100517.16;5047491;28;20227;-83
2021/09/15 00:33:01;;;;;;;12.40;11.27;;;;;;;17.62;80.71;100510.31;5056427;28;20607;-83
2021/09/15 00:35:27;;;;;;;11.87;10.77;;;;;;;17.61;80.89;100510.47;5047329;28;20562;-84
2021/09/15 00:37:54;;;;;;;11.90;10.70;;;;;;;17.61;81.24;100511.31;5052537;28;20213;-84
2021/09/15 00:40:20;;;;;;;10.93;9.93;;;;;;;17.62;81.37;100502.25;5063808;28;20200;-83
2021/09/15 00:42:47;;;;;;;11.63;10.60;;;;;;;17.63;81.56;100506.66;5049892;28;20706;-83
2021/09/15 00:45:14;;;;;;;11.60;10.50;;;;;;;17.69;81.79;100502.56;5049378;28;20220;-83
2021/09/15 00:47:40;;;;;;;11.17;10.10;;;;;;;17.74;82.33;100504.78;5050674;28;20210;-84
2021/09/15 00:50:10;;;;;;;10.80;9.80;;;;;;;17.81;81.85;100504.06;5050294;28;20226;-85
2021/09/15 00:52:36;;;;;;;10.90;9.57;;;;;;;17.87;82.10;100497.25;5055739;28;20227;-84
2021/09/15 00:55:03;;;;;;;10.87;9.80;;;;;;;17.93;81.97;100497.50;5060241;28;20220;-84
2021/09/15 00:57:30;;;;;;;10.77;9.67;;;;;;;17.98;81.87;100494.34;5046518;28;20653;-84
2021/09/15 00:59:56;;;;;;;10.57;9.57;;;;;;;18.01;81.73;100491.38;5057980;28;20199;-83
2021/09/15 01:02:23;;;;;;;13.53;9.70;;;;;;;18.03;81.63;100492.94;5052271;28;20231;-84
2021/09/15 01:04:49;;;;;;;10.67;9.70;;;;;;;18.08;81.17;100486.25;5053465;28;20210;-84
2021/09/15 01:07:18;;;;;;;10.87;9.87;;;;;;;18.10;81.32;100486.91;5047659;28;20216;-83
2021/09/15 01:09:47;;;;;;;10.17;9.20;;;;;;;18.12;81.16;100474.16;5049242;28;20865;-83
2021/09/15 01:12:14;;;;;;;10.10;9.10;;;;;;;18.14;81.10;100472.16;5057547;28;20216;-83
2021/09/15 01:14:41;;;;;;;10.17;9.17;;;;;;;18.17;80.89;100471.84;5051303;28;20300;-83
2021/09/15 01:17:09;;;;;;;9.67;8.67;;;;;;;18.18;80.72;100466.31;5060659;28;20224;-84
2021/09/15 01:19:35;;;;;;;9.67;8.77;;;;;;;18.20;80.76;100472.41;5054549;28;20318;-84
2021/09/15 01:22:04;;;;;;;12.27;8.83;;;;;;;18.22;80.65;100480.34;5058378;28;20202;-84
2021/09/15 01:24:31;;;;;;;9.57;8.57;;;;;;;18.24;80.13;100476.50;5055201;28;20204;-84
2021/09/15 01:26:59;;;;;;;9.20;8.50;;;;;;;18.26;80.39;100476.38;5048758;28;20202;-84
2021/09/15 01:29:28;;;;;;;11.90;8.97;;;;;;;18.28;80.57;100474.34;5055528;28;20239;-84
2021/09/15 01:31:59;;;;;;;8.47;7.40;;;;;;;18.30;80.22;100466.94;5054930;28;20202;-85
2021/09/15 01:34:26;;;;;;;8.93;8.13;;;;;;;18.33;80.14;100466.66;5064808;28;20575;-81
2021/09/15 01:36:53;;;;;;;8.27;7.57;;;;;;;18.34;80.25;100468.34;5062093;28;20205;-84
2021/09/15 01:39:21;;;;;;;8.33;7.57;;;;;;;18.37;80.10;100473.44;5054912;28;20213;-84
2021/09/15 01:41:48;;;;;;;12.10;9.43;;;;;;;18.38;79.98;100472.44;5055004;28;20551;-84
2021/09/15 01:44:14;;;;;;;11.40;10.20;;;;;;;18.37;79.96;100478.84;5063636;28;20225;-84
2021/09/15 01:46:41;;;;;;;10.73;9.47;;;;;;;18.35;79.61;100484.38;5059332;28;20214;-84
2021/09/15 01:49:08;;;;;;;10.80;9.80;;;;;;;18.34;79.63;100481.84;5061627;28;20719;-84
2021/09/15 01:51:34;;;;;;;10.03;9.23;;;;;;;18.29;79.62;100478.72;5053215;28;20209;-84
2021/09/15 01:54:01;;;;;;;9.57;8.77;;;;;;;18.26;79.69;100474.50;5056120;28;20581;-83
2021/09/15 01:56:28;;;;;;;9.80;8.97;;;;;;;18.25;79.83;100474.66;5057340;28;20201;-84
2021/09/15 01:58:55;;;;;;;10.67;9.57;;;;;;;18.22;79.87;100467.72;5053404;28;20209;-84
2021/09/15 02:01:21;;;;;;;9.83;9.03;;;;;;;18.21;80.00;100470.56;5055858;28;20217;-84
2021/09/15 02:03:48;;;;;;;10.00;9.00;;;;;;;18.19;80.07;100464.47;5057196;28;20239;-84
2021/09/15 02:06:14;;;;;;;10.27;9.20;;;;;;;18.19;80.01;100464.47;5054246;28;20217;-85
2021/09/15 02:08:41;;;;;;;10.50;9.50;;;;;;;18.17;80.09;100459.22;5056747;28;20205;-85
2021/09/15 02:11:08;;;;;;;10.03;9.03;;;;;;;18.18;80.11;100460.06;5058600;28;20227;-84
2021/09/15 02:13:36;;;;;;;10.37;9.37;;;;;;;18.18;80.21;100465.47;5055921;28;20589;-83
2021/09/15 02:16:03;;;;;;;9.67;8.87;;;;;;;18.17;80.38;100467.31;5055826;28;20206;-83
2021/09/15 02:18:29;;;;;;;10.50;9.50;;;;;;;18.18;80.39;100462.78;5062322;28;20204;-82
2021/09/15 02:20:56;;;;;;;10.90;9.80;;;;;;;18.18;80.62;100452.00;5059510;28;20201;-83
2021/09/15 02:23:22;;;;;;;11.10;10.17;;;;;;;18.18;80.58;100455.53;5056328;28;20239;-83
2021/09/15 02:25:49;;;;;;;10.00;9.00;;;;;;;18.18;80.56;100452.00;5052257;28;20202;-83
2021/09/15 02:28:15;;;;;;;10.70;9.60;;;;;;;18.17;80.45;100445.75;5053182;28;20224;-83
2021/09/15 02:30:43;;;;;;;10.70;9.80;;;;;;;18.17;80.53;100450.28;5053305;28;20327;-83
2021/09/15 02:33:10;;;;;;;10.37;9.47;;;;;;;18.16;80.40;100454.84;5051775;28;20221;-83
2021/09/15 02:35:36;;;;;;;9.17;8.47;;;;;;;18.17;80.40;100444.91;5052621;28;20211;-83
2021/09/15 02:38:03;;;;;;;10.90;9.30;;;;;;;18.16;80.44;100446.75;5052627;28;20204;-82
2021/09/15 02:40:29;;;;;;;9.57;8.63;;;;;;;18.17;80.45;100444.91;5047642;28;20641;-83
2021/09/15 02:42:56;;;;;;;9.70;8.83;;;;;;;18.17;80.34;100445.75;5059936;28;20225;-82
2021/09/15 02:45:22;;;;;;;11.23;10.13;;;;;;;18.18;80.66;100439.38;5049717;28;20238;-83
2021/09/15 02:47:50;;;;;;;11.57;10.17;;;;;;;18.18;80.60;100446.59;5054012;28;20208;-83
2021/09/15 02:50:17;;;;;;;10.80;9.70;;;;;;;18.17;80.55;100434.13;5045975;28;20226;-83
2021/09/15 02:52:44;;;;;;;10.57;9.50;;;;;;;18.17;80.73;100434.13;5056916;28;20219;-83
2021/09/15 02:55:11;;;;;;;12.30;10.40;;;;;;;18.16;80.79;100435.97;5053537;28;20201;-84
2021/09/15 02:57:37;;;;;;;10.93;10.00;;;;;;;18.16;80.95;100430.56;5050537;28;20287;-85
2021/09/15 03:00:05;;;;;;;10.70;9.67;;;;;;;18.15;80.72;100431.56;5058788;28;20285;-84
2021/09/15 03:02:32;;;;;;;10.77;9.63;;;;;;;18.14;81.09;100423.63;5051749;28;20235;-85
2021/09/15 03:05:00;;;;;;;10.80;9.80;;;;;;;18.15;81.14;100418.09;5060232;28;20212;-83
2021/09/15 03:07:26;;;;;;;10.03;9.23;;;;;;;18.15;81.18;100411.84;5058689;28;20570;-84
2021/09/15 03:09:53;;;;;;;13.93;10.50;;;;;;;18.13;81.27;100406.63;5059548;28;20237;-84
2021/09/15 03:12:19;;;;;;;10.57;9.67;;;;;;;18.14;81.38;100410.16;5049642;28;20231;-84
2021/09/15 03:14:46;;;;;;;10.80;9.90;;;;;;;18.13;81.39;100419.25;5050966;28;20202;-84
2021/09/15 03:17:12;;;;;;;11.03;10.10;;;;;;;18.14;81.51;100416.41;5056749;28;20205;-84
2021/09/15 03:19:39;;;;;;;10.40;9.60;;;;;;;18.13;81.49;100420.09;5055189;28;20205;-84
2021/09/15 03:22:07;;;;;;;11.83;10.73;;;;;;;18.14;81.47;100419.09;5063892;28;20215;-84
2021/09/15 03:24:34;;;;;;;10.57;9.67;;;;;;;18.14;81.48;100418.25;5053573;28;20225;-85
2021/09/15 03:27:03;;;;;;;11.03;10.03;;;;;;;18.11;81.50;100416.69;5055382;28;20296;-85
2021/09/15 03:29:29;;;;;;;12.83;10.13;;;;;;;18.11;81.37;100413.16;5051389;28;20278;-85
2021/09/15 03:31:56;;;;;;;10.70;9.80;;;;;;;18.10;81.42;100406.06;5051963;28;20583;-85
2021/09/15 03:34:23;;;;;;;10.53;9.67;;;;;;;18.10;81.47;100404.22;5049440;28;20201;-85
2021/09/15 03:36:49;;;;;;;11.03;10.03;;;;;;;18.10;81.41;100406.06;5058733;28;20207;-85
2021/09/15 03:39:17;;;;;;;10.60;9.53;;;;;;;18.10;81.40;100400.69;5049517;28;20663;-84
2021/09/15 03:41:43;;;;;;;10.60;9.60;;;;;;;18.08;81.24;100398.16;5050242;28;20653;-83
2021/09/15 03:44:10;;;;;;;11.27;10.17;;;;;;;18.08;81.51;100397.31;5049921;28;20217;-84
2021/09/15 03:46:37;;;;;;;11.10;10.07;;;;;;;18.07;81.46;100401.00;5044170;28;20209;-82
2021/09/15 03:49:04;;;;;;;11.00;9.90;;;;;;;18.07;81.45;100392.91;5051178;28;20202;-83
2021/09/15 03:51:31;;;;;;;10.73;9.80;;;;;;;18.04;81.18;100385.97;5050212;28;20226;-83
2021/09/15 03:53:58;;;;;;;10.97;9.97;;;;;;;18.03;81.60;100384.28;5043312;28;20818;-82
2021/09/15 03:56:26;;;;;;;10.67;9.67;;;;;;;18.01;81.63;100383.59;5046342;28;20201;-84
2021/09/15 03:58:52;;;;;;;10.73;9.67;;;;;;;17.99;81.57;100375.66;5051280;28;20205;-84
2021/09/15 04:01:19;;;;;;;10.40;9.50;;;;;;;17.97;81.59;100380.34;5050619;28;20220;-83
2021/09/15 04:03:46;;;;;;;10.17;9.00;;;;;;;17.96;81.61;100378.63;5050436;28;20240;-83
2021/09/15 04:06:12;;;;;;;10.63;9.73;;;;;;;17.93;81.46;100378.94;5044886;28;20575;-83
2021/09/15 04:08:39;;;;;;;11.60;9.30;;;;;;;17.93;81.60;100381.63;5045775;28;20209;-82
2021/09/15 04:11:05;;;;;;;10.10;9.20;;;;;;;17.91;81.51;100378.25;5049946;28;20234;-83
2021/09/15 04:13:33;;;;;;;12.70;10.23;;;;;;;17.90;81.70;100368.50;5055396;28;20707;-83
2021/09/15 04:16:00;;;;;;;11.00;9.53;;;;;;;17.90;81.70;100371.19;5044782;28;20211;-84
2021/09/15 04:18:26;;;;;;;10.37;9.37;;;;;;;17.91;81.77;100367.50;5044054;28;20279;-84
2021/09/15 04:20:53;;;;;;;9.80;9.00;;;;;;;17.91;81.82;100370.19;5050303;28;20213;-83
2021/09/15 04:23:23;;;;;;;9.80;8.87;;;;;;;17.93;81.90;100367.31;5048697;28;20239;-84
2021/09/15 04:31:34;;;;;;;11.90;9.43;;;;;;;17.97;81.94;100369.56;4986263;28;20226;-84
2021/09/15 04:34:02;;;;;;;12.27;8.97;;;;;;;17.98;81.84;100368.56;5017479;28;20230;-84
2021/09/15 04:36:29;;;;;;;9.17;8.47;;;;;;;18.00;81.73;100371.97;5041407;28;20229;-84
2021/09/15 04:38:56;;;;;;;10.23;9.27;;;;;;;18.00;81.70;100369.25;5040735;28;20214;-84
2021/09/15 04:41:23;;;;;;;9.20;8.40;;;;;;;18.01;81.63;100365.56;5045847;28;20204;-84
2021/09/15 04:43:51;;;;;;;10.00;9.20;;;;;;;18.02;81.61;100372.66;5045047;28;20306;-84
2021/09/15 04:46:17;;;;;;;9.87;8.97;;;;;;;18.02;81.44;100371.81;5043603;28;20209;-85
2021/09/15 04:48:44;;;;;;;9.40;8.60;;;;;;;18.01;81.49;100370.97;5042171;28;20233;-84
2021/09/15 04:51:12;;;;;;;11.17;8.93;;;;;;;18.00;81.43;100368.41;5045941;28;20235;-85
2021/09/15 04:53:38;;;;;;;8.77;7.97;;;;;;;17.99;81.36;100364.03;5041999;28;20261;-84
2021/09/15 04:56:06;;;;;;;8.60;7.80;;;;;;;17.95;81.30;100362.63;5045231;28;20209;-84
2021/09/15 04:58:32;;;;;;;8.40;7.70;;;;;;;17.89;81.08;100360.56;5043692;28;20207;-84
2021/09/15 05:01:00;;;;;;;9.17;8.40;;;;;;;17.86;81.15;100359.00;5049826;28;20284;-85
2021/09/15 05:03:27;;;;;;;9.13;8.33;;;;;;;17.84;81.21;100360.16;5049431;28;20678;-84
2021/09/15 05:05:53;;;;;;;8.53;7.73;;;;;;;17.81;81.32;100350.53;5053075;28;20211;-84
2021/09/15 05:08:20;;;;;;;8.43;7.80;;;;;;;17.79;81.37;100355.22;5050694;28;20248;-85
2021/09/15 05:10:46;;;;;;;9.80;8.80;;;;;;;17.78;81.30;100358.91;5048475;28;20221;-83
2021/09/15 05:13:13;;;;;;;9.80;8.50;;;;;;;17.76;81.46;100354.66;5055394;28;20228;-84
2021/09/15 05:15:40;;;;;;;8.87;7.97;;;;;;;17.75;81.42;100355.66;5038324;28;20200;-84
2021/09/15 05:18:08;;;;;;;8.90;8.00;;;;;;;17.74;81.48;100356.66;5041075;28;20626;-84
2021/09/15 05:20:35;;;;;;;9.47;8.57;;;;;;;17.74;81.46;100356.66;5048187;28;20205;-84
2021/09/15 05:23:01;;;;;;;10.27;8.57;;;;;;;17.73;81.59;100360.38;5067127;28;20246;-84
2021/09/15 05:25:28;;;;;;;11.57;9.70;;;;;;;17.73;81.52;100363.91;5056843;28;20232;-84
2021/09/15 05:27:55;;;;;;;9.57;8.77;;;;;;;17.74;81.64;100360.19;5049049;28;20227;-80
2021/09/15 05:30:22;;;;;;;9.77;8.87;;;;;;;17.75;81.58;100358.34;5044242;28;20226;-82
2021/09/15 05:32:48;;;;;;;9.67;8.73;;;;;;;17.76;81.62;100355.50;5056600;28;20227;-80
2021/09/15 05:35:16;;;;;;;9.33;8.57;;;;;;;17.78;81.49;100358.03;5052836;28;20208;-83
2021/09/15 05:37:44;;;;;;;9.20;8.37;;;;;;;17.78;81.42;100348.13;5055741;28;20216;-82
2021/09/15 05:40:11;;;;;;;9.67;8.77;;;;;;;17.82;81.60;100359.44;5057624;28;20239;-82
2021/09/15 05:42:38;;;;;;;14.33;9.40;;;;;;;17.85;81.69;100360.00;5070568;28;20281;-82
2021/09/15 05:45:06;;;;;;;12.63;9.77;;;;;;;17.87;81.63;100358.00;5059040;28;20205;-82
2021/09/15 05:47:32;;;;;;;9.70;8.87;;;;;;;17.91;81.77;100345.94;5053224;28;20321;-82
2021/09/15 05:50:00;;;;;;;9.83;8.83;;;;;;;17.96;81.72;100350.84;5053463;28;20290;-82
2021/09/15 05:52:28;;;;;;;11.00;9.37;;;;;;;17.98;81.67;100349.69;5057951;28;20222;-82
2021/09/15 05:54:55;;;;;;;9.43;8.63;;;;;;;18.00;81.93;100353.09;5061244;28;20641;-82
2021/09/15 05:57:21;;;;;;;10.47;9.47;;;;;;;18.03;82.09;100349.25;5049812;28;20203;-82
2021/09/15 05:59:48;;;;;;;9.70;8.80;;;;;;;18.07;82.26;100352.50;5056192;28;20204;-82
2021/09/15 06:02:14;;;;;;;9.97;8.97;;;;;;;18.10;82.19;100350.31;5055168;28;20221;-82
2021/09/15 06:04:41;;;;;;;12.37;9.90;;;;;;;18.14;82.17;100356.25;5054700;28;20206;-82
2021/09/15 06:07:07;;;;;;;13.03;9.40;;;;;;;18.18;81.92;100352.25;5053012;28;20298;-82
2021/09/15 06:09:35;;;;;;;14.60;10.50;;;;;;;18.21;81.94;100349.28;5063870;28;20219;-80
2021/09/15 06:12:02;;;;;;;11.43;10.13;;;;;;;18.26;81.95;100346.97;5063991;28;20221;-82
2021/09/15 06:14:28;;;;;;;14.57;10.67;;;;;;;18.31;81.83;100358.13;5046862;28;20207;-82
2021/09/15 06:16:55;;;;;;;14.90;10.70;;;;;;;18.35;81.77;100362.22;5051645;28;20208;-82
2021/09/15 06:19:22;;;;;;;12.37;10.07;;;;;;;18.38;81.72;100353.81;5051043;28;20546;-82
2021/09/15 06:21:48;;;;;;;9.80;8.93;;;;;;;18.42;81.56;100348.97;5053040;28;20208;-82
2021/09/15 06:24:15;;;;;;;10.37;9.27;;;;;;;18.45;81.47;100354.88;5048755;28;20596;-82
2021/09/15 06:26:43;;;;;;;10.10;9.07;;;;;;;18.48;81.33;100349.16;5048075;28;20201;-82
2021/09/15 06:29:09;;;;;;;10.03;9.10;;;;;;;18.53;81.40;100352.25;5053897;28;20209;-82
2021/09/15 06:31:36;;;;;;;10.57;8.70;;;;;;;18.61;81.83;100355.06;5050930;28;20224;-82
2021/09/15 06:34:04;;;;;;;8.20;7.40;;;;;;;18.67;81.75;100357.13;5063101;28;20321;-82
2021/09/15 06:36:32;;;;;;;9.60;7.33;;;;;;;18.77;81.86;100350.81;5054957;28;20227;-82
2021/09/15 06:38:58;;;;;;;7.10;6.40;;;;;;;18.84;81.62;100351.84;5054591;28;20199;-82
2021/09/15 06:41:25;;;;;;;7.47;6.77;;;;;;;18.90;81.17;100345.84;5051745;28;20569;-82
2021/09/15 06:43:53;;;;;;;7.73;6.37;;;;;;;18.98;80.84;100351.31;5058713;28;20226;-82
2021/09/15 06:46:19;;;;;;;7.40;6.70;;;;;;;19.02;80.51;100345.41;5051416;28;20216;-82
2021/09/15 06:48:46;;;;;;;6.87;5.97;;;;;;;19.08;80.06;100343.94;5061417;28;20204;-82
2021/09/15 06:51:12;;;;;;;7.03;6.33;;;;;;;19.13;79.93;100351.56;5046136;28;20305;-82
2021/09/15 06:53:39;;;;;;;9.00;6.97;;;;;;;19.18;79.68;100347.34;5051631;28;20233;-82
2021/09/15 06:56:05;;;;;;;7.77;7.07;;;;;;;19.22;79.39;100356.84;5055979;28;20669;-82
2021/09/15 06:58:32;;;;;;;8.60;7.80;;;;;;;19.26;79.17;100352.81;5044533;28;20559;-82
2021/09/15 07:01:00;;;;;;;8.73;7.93;;;;;;;19.30;79.34;100348.78;5046153;28;20206;-82
2021/09/15 07:03:27;;;;;;;9.70;8.23;;;;;;;19.33;79.09;100350.34;5049480;28;20244;-82
2021/09/15 07:05:53;;;;;;;10.03;8.83;;;;;;;19.36;79.30;100353.53;5043426;28;20641;-82
2021/09/15 07:08:20;;;;;;;10.30;9.30;;;;;;;19.41;79.63;100351.22;5052366;28;20217;-82
2021/09/15 07:10:47;;;;;;;10.90;8.80;;;;;;;19.45;80.02;100367.09;5048741;28;20223;-82
2021/09/15 07:13:14;;;;;;;10.60;9.50;;;;;;;19.48;80.31;100367.63;5052943;28;20327;-82
2021/09/15 07:15:40;;;;;;;38.03;11.30;;;;;;;19.51;80.20;100366.50;5046826;28;20207;-82
2021/09/15 07:18:08;;;;;;;9.73;8.80;;;;;;;19.50;80.19;100364.78;5047193;28;20211;-82
2021/09/15 07:20:35;;;;;;;11.33;10.20;;;;;;;19.50;80.16;100362.09;5047911;28;20214;-83
2021/09/15 07:23:02;;;;;;;54.57;11.77;;;;;;;19.48;79.99;100361.38;5051857;28;20594;-82
2021/09/15 07:25:28;;;;;;;11.03;9.73;;;;;;;19.45;80.21;100362.53;5049473;28;20220;-83
2021/09/15 07:27:55;;;;;;;11.43;9.50;;;;;;;19.41;80.06;100345.81;5053391;28;20203;-82
2021/09/15 07:30:22;;;;;;;11.70;10.60;;;;;;;19.38;80.16;100351.53;5043142;28;20208;-82
2021/09/15 07:32:49;;;;;;;11.27;10.07;;;;;;;19.38;80.42;100354.22;5047975;28;20275;-83
2021/09/15 07:35:17;;;;;;;13.50;10.03;;;;;;;19.38;80.39;100359.63;5049935;28;20212;-82
2021/09/15 07:37:43;;;;;;;11.80;10.60;;;;;;;19.38;80.58;100370.44;5048439;28;20230;-85
2021/09/15 07:40:11;;;;;;;13.03;10.80;;;;;;;19.38;80.70;100356.94;5044119;28;20199;-84
2021/09/15 07:42:38;;;;;;;12.33;11.13;;;;;;;19.38;81.15;100362.31;5038421;28;20220;-85
2021/09/15 07:45:06;;;;;;;12.57;10.00;;;;;;;19.37;81.24;100351.69;5053754;28;20211;-84
2021/09/15 07:47:32;;;;;;;11.83;10.00;;;;;;;19.34;81.66;100346.63;5049866;28;20223;-84
2021/09/15 07:49:59;;;;;;;12.10;11.00;;;;;;;19.31;81.73;100349.66;5053001;28;20581;-84
2021/09/15 07:52:27;;;;;;;12.23;11.03;;;;;;;19.30;82.32;100337.16;5061555;28;20230;-85
2021/09/15 07:54:53;;;;;;;13.37;12.03;;;;;;;19.28;82.70;100334.59;5063607;28;20682;-85
2021/09/15 07:57:20;;;;;;;16.50;11.43;;;;;;;19.27;83.26;100338.31;5053996;28;20210;-85
2021/09/15 07:59:46;;;;;;;14.67;10.93;;;;;;;19.27;83.69;100341.00;5051848;28;20210;-85
2021/09/15 08:02:13;;;;;;;13.20;11.80;;;;;;;19.26;83.83;100347.41;5046215;28;20223;-83
2021/09/15 08:04:40;;;;;;;13.87;12.63;;;;;;;19.29;84.37;100349.81;5053049;28;20212;-84
2021/09/15 08:07:06;;;;;;;15.23;12.53;;;;;;;19.31;84.73;100353.19;5054113;28;20217;-84
2021/09/15 08:09:35;;;;;;;13.50;11.90;;;;;;;19.34;84.94;100360.97;5055992;28;20223;-84
2021/09/15 08:12:01;;;;;;;12.40;11.17;;;;;;;19.35;85.02;100362.63;5061925;28;20235;-84
2021/09/15 08:14:29;;;;;;;12.47;11.27;;;;;;;19.37;85.31;100349.81;5065486;28;20202;-85
2021/09/15 08:16:55;;;;;;;13.53;12.07;;;;;;;19.40;85.57;100349.50;5063282;28;20206;-84
2021/09/15 08:19:23;;;;;;;13.33;12.23;;;;;;;19.42;85.69;100339.41;5062580;28;20216;-84
2021/09/15 08:21:49;;;;;;;15.40;11.33;;;;;;;19.47;85.87;100338.06;5060648;28;20207;-84
2021/09/15 08:24:16;;;;;;;13.20;11.70;;;;;;;19.50;86.12;100332.38;5058824;28;20229;-84
2021/09/15 08:26:44;;;;;;;13.53;11.10;;;;;;;19.53;86.10;100334.72;5059643;28;20206;-84
2021/09/15 08:29:10;;;;;;;14.67;11.60;;;;;;;19.56;86.30;100342.53;5048695;28;20215;-84
2021/09/15 08:31:37;;;;;;;13.20;11.37;;;;;;;19.59;86.54;100337.66;5049832;28;20231;-84
2021/09/15 08:34:04;;;;;;;13.63;11.70;;;;;;;19.64;86.77;100334.47;5049908;28;20702;-84
2021/09/15 08:36:30;;;;;;;13.87;12.63;;;;;;;19.70;87.27;100339.22;5043716;28;20207;-83
2021/09/15 08:38:57;;;;;;;12.53;11.37;;;;;;;19.76;87.27;100334.00;5046490;28;20200;-82
2021/09/15 08:41:23;;;;;;;12.60;11.50;;;;;;;19.84;87.70;100330.47;5042066;28;20221;-82
2021/09/15 08:43:52;;;;;;;12.67;11.37;;;;;;;19.95;88.04;100332.03;5048031;28;20227;-81
2021/09/15 08:46:22;;;;;;;13.53;12.13;;;;;;;20.01;88.13;100332.22;5047625;28;20295;-83
2021/09/15 08:48:52;;;;;;;13.20;11.87;;;;;;;20.08;87.98;100326.97;5042011;28;20204;-83
2021/09/15 08:51:23;;;;;;;13.07;11.73;;;;;;;20.14;87.60;100331.72;5045544;28;20223;-82
2021/09/15 08:53:51;;;;;;;13.43;12.13;;;;;;;20.24;87.99;100329.72;5048931;28;20219;-83
2021/09/15 08:56:18;;;;;;;13.47;12.17;;;;;;;20.35;87.93;100333.97;5039057;28;20277;-83
2021/09/15 08:58:45;;;;;;;12.83;11.50;;;;;;;20.42;87.81;100335.03;5042380;28;20236;-82
2021/09/15 09:01:21;;;;;;;12.97;11.70;;;;;;;20.49;87.68;100325.19;5038177;28;20220;-82
2021/09/15 09:03:53;;;;;;;13.50;12.00;;;;;;;20.58;87.57;100328.75;5037159;28;20231;-82
2021/09/15 09:06:22;;;;;;;13.23;12.00;;;;;;;20.64;87.42;100339.75;5037318;28;20210;-83
2021/09/15 09:08:53;;;;;;;13.20;11.67;;;;;;;20.70;87.12;100322.84;5043307;28;20250;-83
2021/09/15 09:11:24;;;;;;;13.27;11.73;;;;;;;20.76;86.79;100322.16;5037060;28;20217;-83
2021/09/15 09:13:55;;;;;;;13.25;11.77;;;;;;;20.81;86.64;100321.63;5040919;28;20225;-83
2021/09/15 09:16:37;;;;;;;13.02;11.82;;;;;;;20.90;86.54;100323.31;5038580;28;21358;-80
2021/09/15 09:19:08;;;;;;;13.40;12.10;;;;;;;20.99;86.43;100324.13;5044790;28;20656;-82
2021/09/15 09:21:36;;;;;;;13.23;11.93;;;;;;;21.06;86.34;100322.44;5039020;28;20213;-81
2021/09/15 09:24:05;;;;;;;12.15;11.05;;;;;;;21.11;85.97;100323.63;5036043;28;20234;-81
2021/09/15 09:26:50;;;;;;;12.32;10.90;;;;;;;21.18;85.38;100318.34;5041464;28;20337;-81
2021/09/15 09:29:21;;;;;;;12.18;11.10;;;;;;;21.23;85.05;100318.72;5038477;28;20205;-81
2021/09/15 09:32:02;;;;;;;11.80;10.60;;;;;;;21.30;84.73;100319.72;5040101;28;20226;-84
2021/09/15 09:34:30;;;;;;;11.02;9.93;;;;;;;21.34;84.35;100312.91;5039769;28;20198;-85
2021/09/15 09:37:02;;;;;;;12.77;11.48;;;;;;;21.38;84.12;100316.97;5038095;28;20296;-84
2021/09/15 09:39:37;;;;;;;11.98;10.77;;;;;;;21.45;84.05;100315.25;5037062;28;20219;-82
2021/09/15 09:42:05;;;;;;;11.77;10.60;;;;;;;21.51;83.95;100310.13;5043325;28;20679;-83
2021/09/15 09:44:31;;;;;;;9.70;8.80;;;;;;;21.57;83.18;100304.00;5043067;28;20285;-85
2021/09/15 09:47:18;;;;;;;9.20;8.40;;;;;;;21.64;82.63;100302.28;5046262;28;20228;-84
2021/09/15 09:49:58;;;;;;;9.55;8.65;;;;;;;21.70;82.27;100304.28;5045682;28;20208;-85
2021/09/15 09:52:27;;;;;;;9.63;8.68;;;;;;;21.76;81.55;100309.00;5049743;28;20230;-84
2021/09/15 09:55:05;;;;;;;8.73;7.82;;;;;;;21.83;81.10;100310.84;5042875;28;20206;-86
2021/09/15 09:57:32;;;;;;;9.10;8.20;;;;;;;21.93;80.50;100299.75;5044745;28;20213;-84
2021/09/15 09:59:59;;;;;;;11.68;8.77;;;;;;;22.02;80.47;100296.00;5046794;28;20210;-83
2021/09/15 10:02:27;;;;;;;9.85;8.93;;;;;;;22.11;80.41;100286.78;5047576;28;20813;-84
2021/09/15 10:04:54;;;;;;;9.10;8.20;;;;;;;22.21;79.93;100285.72;5046159;28;20203;-84
2021/09/15 10:07:20;;;;;;;9.52;8.55;;;;;;;22.27;79.20;100282.25;5042120;28;20212;-84
2021/09/15 10:09:47;;;;;;;8.05;7.30;;;;;;;22.28;78.45;100279.38;5042398;28;20206;-84
2021/09/15 10:12:14;;;;;;;8.90;7.95;;;;;;;22.29;77.49;100282.91;5050049;28;20256;-84
2021/09/15 10:14:42;;;;;;;8.90;8.20;;;;;;;22.29;77.10;100277.50;5049420;28;20205;-84
2021/09/15 10:17:12;;;;;;;8.73;8.02;;;;;;;22.30;76.97;100276.47;5048874;28;20205;-83
2021/09/15 10:19:42;;;;;;;9.35;7.90;;;;;;;22.32;76.76;100269.84;5040980;28;20213;-84
2021/09/15 10:22:09;;;;;;;10.75;9.77;;;;;;;22.35;76.81;100266.78;5043549;28;20597;-84
2021/09/15 10:24:52;;;;;;;8.65;7.82;;;;;;;22.41;76.40;100259.75;5044814;28;20288;-84
2021/09/15 10:27:22;;;;;;;8.25;7.55;;;;;;;22.43;76.05;100260.41;5037981;28;20213;-84
2021/09/15 10:30:01;;;;;;;9.65;8.75;;;;;;;22.46;76.10;100246.47;5041684;28;20213;-83
2021/09/15 10:32:33;;;;;;;8.82;8.07;;;;;;;22.51;76.11;100252.22;5043114;28;20581;-83
2021/09/15 10:35:01;;;;;;;9.60;8.43;;;;;;;22.58;76.13;100253.13;5039389;28;20202;-85
2021/09/15 10:37:56;;;;;;;9.30;8.48;;;;;;;22.62;76.31;100246.31;5045316;28;20198;-84
2021/09/15 10:40:40;;;;;;;10.02;7.88;;;;;;;22.64;76.14;100260.56;5043415;28;20240;-83
2021/09/15 10:43:41;;;;;;;9.60;8.80;;;;;;;22.65;76.04;100262.25;5045151;28;20281;-83
2021/09/15 10:46:23;;;;;;;9.90;8.88;;;;;;;22.66;76.28;100254.94;5045944;28;20577;-84
2021/09/15 10:49:42;;;;;;;9.55;8.57;;;;;;;22.65;76.39;100255.97;5048325;28;20834;-83
2021/09/15 10:52:29;;;;;;;9.57;8.57;;;;;;;22.67;76.43;100257.47;5045794;28;20212;-84
2021/09/15 10:54:58;;;;;;;10.43;9.43;;;;;;;22.66;76.66;100260.38;5050112;28;20196;-85
2021/09/15 10:57:38;;;;;;;9.95;8.95;;;;;;;22.68;76.87;100255.59;5049387;28;20296;-84
2021/09/15 11:00:11;;;;;;;9.77;9.02;;;;;;;22.70;77.18;100261.69;5048801;28;20194;-84
2021/09/15 11:02:41;;;;;;;9.25;8.35;;;;;;;22.71;76.75;100253.38;5047205;28;20639;-85
2021/09/15 11:05:43;;;;;;;9.70;8.80;;;;;;;22.69;76.79;100247.28;5049373;28;20221;-85
2021/09/15 11:08:20;;;;;;;9.80;8.13;;;;;;;22.68;76.57;100242.03;5041874;28;20211;-84
2021/09/15 11:10:47;;;;;;;9.23;8.32;;;;;;;22.67;76.84;100246.63;5044933;28;20202;-84
2021/09/15 11:13:16;;;;;;;9.15;8.27;;;;;;;22.68;76.64;100237.44;5049891;28;20265;-85
2021/09/15 11:15:44;;;;;;;8.95;8.15;;;;;;;22.72;76.68;100235.22;5054471;28;20290;-84
2021/09/15 11:18:23;;;;;;;9.45;8.27;;;;;;;22.75;76.94;100234.84;5047343;28;20205;-85
2021/09/15 11:20:55;;;;;;;10.15;8.90;;;;;;;22.77;76.67;100228.22;5043753;28;20204;-84
2021/09/15 11:23:26;;;;;;;9.80;8.90;;;;;;;22.79;76.42;100226.16;5046498;28;20229;-83
2021/09/15 11:26:01;;;;;;;10.23;9.07;;;;;;;22.82;76.48;100225.78;5044353;28;20209;-84
2021/09/15 11:28:28;;;;;;;9.43;8.52;;;;;;;22.88;76.61;100226.09;5054265;28;20200;-84